aviador You're here:

KMLT Decoded Metar

MILLINOCKET in ME, USA
Report Time2017-11-20 21:53:00
UTC Time2017-11-20 22:43:08
Flight Rules vfr VFR
Wind310° at 17 Gusting to 27 kt
W.Decomp.*RWY 34: 16.6 kt HW 3.8 kt LCW
RWY 29: 13.6 kt HW 10.2 kt RCW
W.Rank310° ranks 4
Current wind is above 310° avg. (8.2)
Visibility9999 m
Phenomena:N/A
Clouds:Broken 039 Hf
Overcast 046 Hf
Expected CloudBase > 2,800 ft AGL from Temp-Dew spread
Ceiling3,900 ft
Temp-7°C (ISA -21)
Dew Point-14°C (58% RH)
AAT-16.4°C
QNH1009 hPa
Density Alt-2,057 ft
Elevation404 ft
Report Wrong Elevation
Raw Report
METAR KMLT 202153Z AUTO 31017G27KT 10SM BKN039 OVC046 M07/M14 A2980
RMK AO2 PK WND 32027/2153 SLP103 T10671139 TSNO=

Extra information for KMLT:More info

Metar Taf Metar & Taf Last 4 Metars F.Rules Stats Wind Profile Meteogram Temp Stats Airport Information Weather charts Add Link Nearby VenuesMetar ALERT Operation Metar Decoded Social comments

AIRNAV info for KMLT